Time;durP1;ratioP1;P1;durP2;ratioP2;P2;SDS_P1;SDS_P2;PMS_P1;PMS_P2;Temp;Humidity;BMP_temperature;BMP_pressure;BME280_temperature;BME280_humidity;BME280_pressure;Samples;Min_cycle;Max_cycle;Signal;HPM_P1;HPM_P2
2023/04/01 00:00:49;;;;;;;38.90;17.23;;;;;;;7.65;100.00;99071.84;4912060;29;20039;-80
2023/04/01 00:03:15;;;;;;;37.67;17.83;;;;;;;7.61;100.00;99069.56;4932680;28;20118;-79
2023/04/01 00:05:40;;;;;;;32.97;15.60;;;;;;;7.65;100.00;99072.66;4936881;28;20067;-78
2023/04/01 00:08:06;;;;;;;30.67;14.60;;;;;;;7.64;100.00;99080.81;4932731;29;20028;-75
2023/04/01 00:10:31;;;;;;;30.55;14.18;;;;;;;7.46;100.00;99074.03;4937555;28;20043;-79
2023/04/01 00:12:56;;;;;;;27.43;11.50;;;;;;;7.40;100.00;99066.81;4931242;29;20032;-77
2023/04/01 00:15:22;;;;;;;18.70;9.33;;;;;;;7.42;100.00;99080.72;4933075;29;20552;-78
2023/04/01 00:17:48;;;;;;;20.10;9.33;;;;;;;7.32;100.00;99074.84;4936293;29;20450;-77
2023/04/01 00:20:14;;;;;;;17.40;9.48;;;;;;;7.27;100.00;99074.59;4930548;29;20098;-79
2023/04/01 00:22:40;;;;;;;14.27;7.18;;;;;;;7.17;100.00;99078.31;4936844;28;20114;-79
2023/04/01 00:25:06;;;;;;;15.65;7.30;;;;;;;7.18;100.00;99077.31;4932764;29;20083;-75
2023/04/01 00:27:31;;;;;;;13.20;7.72;;;;;;;7.25;100.00;99081.91;4918461;29;20258;-79
2023/04/01 00:29:57;;;;;;;12.37;6.60;;;;;;;7.18;100.00;99076.47;4942016;28;20462;-76
2023/04/01 00:32:22;;;;;;;13.80;6.10;;;;;;;7.19;100.00;99078.16;4933785;29;20138;-79
2023/04/01 00:34:51;;;;;;;11.27;5.83;;;;;;;7.18;100.00;99085.25;4939724;29;20046;-78
2023/04/01 00:37:17;;;;;;;9.57;5.63;;;;;;;6.92;100.00;99076.91;4923403;29;20028;-76
2023/04/01 00:39:42;;;;;;;10.75;5.78;;;;;;;6.92;100.00;99077.72;4939319;28;20046;-77
2023/04/01 00:42:09;;;;;;;11.30;6.23;;;;;;;6.91;100.00;99075.25;4936324;29;20043;-79
2023/04/01 00:44:37;;;;;;;10.13;5.50;;;;;;;6.86;100.00;99082.91;4940208;28;20386;-77
2023/04/01 00:47:02;;;;;;;11.05;5.57;;;;;;;6.81;100.00;99075.50;4934782;29;20043;-78
2023/04/01 00:49:49;;;;;;;14.45;6.25;;;;;;;6.54;100.00;99074.22;4936656;29;20031;-78
2023/04/01 00:52:18;;;;;;;12.63;6.38;;;;;;;6.58;100.00;99075.53;4935072;28;20039;-77
2023/04/01 00:54:47;;;;;;;12.45;5.30;;;;;;;6.51;100.00;99074.59;4940739;29;20043;-79
2023/04/01 00:57:17;;;;;;;10.07;5.43;;;;;;;6.61;100.00;99085.78;4935426;29;20044;-79
2023/04/01 00:59:47;;;;;;;9.35;5.80;;;;;;;6.40;100.00;99077.66;4939420;28;20060;-79
2023/04/01 01:02:14;;;;;;;12.60;5.63;;;;;;;6.37;100.00;99081.47;4942178;29;20031;-78
2023/04/01 01:04:40;;;;;;;8.95;4.72;;;;;;;6.25;100.00;99081.06;4940352;29;20123;-77
2023/04/01 01:07:18;;;;;;;6.63;4.35;;;;;;;6.19;100.00;99092.34;4940317;29;20122;-75
2023/04/01 01:10:08;;;;;;;8.07;3.90;;;;;;;6.09;100.00;99089.09;4939492;29;20091;-77
2023/04/01 01:12:45;;;;;;;8.95;4.80;;;;;;;5.92;100.00;99080.38;4917020;29;20032;-77
2023/04/01 01:15:28;;;;;;;10.50;5.05;;;;;;;6.04;100.00;99094.06;4932581;28;20042;-75
2023/04/01 01:18:07;;;;;;;7.50;4.13;;;;;;;5.97;100.00;99090.47;4932709;29;20036;-80
2023/04/01 01:20:47;;;;;;;8.23;4.75;;;;;;;5.93;100.00;99093.44;4939544;29;20035;-77
2023/04/01 01:23:19;;;;;;;8.32;4.47;;;;;;;5.80;100.00;99090.53;4920252;29;20544;-76
2023/04/01 01:26:26;;;;;;;9.57;5.30;;;;;;;5.81;100.00;99096.66;4940022;29;20124;-77
2023/04/01 01:28:51;;;;;;;11.88;5.70;;;;;;;5.61;100.00;99088.28;4914407;29;20044;-77
2023/04/01 01:31:24;;;;;;;12.13;4.77;;;;;;;5.62;100.00;99095.22;4920820;29;20050;-78
2023/04/01 01:34:08;;;;;;;9.77;5.90;;;;;;;5.64;100.00;99111.75;4938310;28;20044;-78
2023/04/01 01:36:37;;;;;;;13.63;6.30;;;;;;;5.40;100.00;99102.91;4939479;29;20130;-78
2023/04/01 01:39:08;;;;;;;12.95;6.70;;;;;;;5.33;100.00;99104.56;4934400;29;20035;-75
2023/04/01 01:41:35;;;;;;;10.80;6.38;;;;;;;5.38;100.00;99109.34;4940035;29;20035;-79
2023/04/01 01:44:04;;;;;;;12.20;6.80;;;;;;;5.47;100.00;99105.69;4941949;28;20046;-77
2023/04/01 01:46:31;;;;;;;11.00;6.13;;;;;;;5.39;100.00;99109.19;4941011;28;20020;-79
2023/04/01 01:48:59;;;;;;;13.25;6.05;;;;;;;5.33;100.00;99116.97;4929700;29;20036;-78
2023/04/01 01:51:27;;;;;;;7.90;4.90;;;;;;;5.30;100.00;99110.22;4939838;28;20704;-76
2023/04/01 01:53:53;;;;;;;9.52;5.53;;;;;;;5.23;100.00;99118.00;4930393;29;20162;-76
2023/04/01 01:56:24;;;;;;;8.20;4.82;;;;;;;5.21;100.00;99114.69;4932417;29;20083;-78
2023/04/01 01:58:55;;;;;;;9.27;5.00;;;;;;;5.15;100.00;99112.72;4930068;29;20036;-76
2023/04/01 02:01:27;;;;;;;7.05;4.30;;;;;;;5.12;100.00;99113.03;4926879;29;20027;-77
2023/04/01 02:03:58;;;;;;;7.00;4.57;;;;;;;5.20;100.00;99114.88;4923771;29;20044;-77
2023/04/01 02:06:27;;;;;;;4.93;3.35;;;;;;;5.16;100.00;99113.53;4944990;29;20090;-76
2023/04/01 02:09:02;;;;;;;6.47;3.40;;;;;;;5.24;100.00;99117.00;4925859;29;20036;-78
2023/04/01 02:11:36;;;;;;;5.30;2.92;;;;;;;5.24;100.00;99119.66;4937928;29;20038;-78
2023/04/01 02:14:07;;;;;;;6.15;3.22;;;;;;;5.12;100.00;99114.88;4925304;29;20063;-76
2023/04/01 02:16:39;;;;;;;3.88;2.88;;;;;;;5.03;100.00;99112.25;4924738;29;20132;-78
2023/04/01 02:19:07;;;;;;;4.35;2.97;;;;;;;5.07;100.00;99125.94;4938681;29;20034;-78
2023/04/01 02:21:34;;;;;;;4.05;2.83;;;;;;;5.10;100.00;99127.44;4944939;29;20027;-77
2023/04/01 02:24:04;;;;;;;5.53;2.80;;;;;;;5.17;100.00;99134.53;4947015;28;20036;-77
2023/04/01 02:26:30;;;;;;;4.65;2.55;;;;;;;5.23;100.00;99146.28;4927233;29;20028;-79
2023/04/01 02:28:59;;;;;;;4.82;2.95;;;;;;;5.06;100.00;99130.41;4934434;29;20107;-76
2023/04/01 02:31:27;;;;;;;4.05;1.92;;;;;;;4.98;100.00;99140.16;4947032;29;20083;-76
2023/04/01 02:33:54;;;;;;;5.03;2.33;;;;;;;4.98;100.00;99138.34;4926055;29;20131;-78
2023/04/01 02:36:20;;;;;;;3.25;2.40;;;;;;;4.95;100.00;99151.91;4931214;29;20032;-78
2023/04/01 02:38:47;;;;;;;2.22;1.35;;;;;;;4.88;100.00;99137.69;4930471;29;20035;-76
2023/04/01 02:41:13;;;;;;;4.95;2.00;;;;;;;5.00;100.00;99139.00;4942120;28;20059;-79
2023/04/01 02:43:38;;;;;;;2.85;1.80;;;;;;;4.85;100.00;99146.78;4938394;29;20435;-76
2023/04/01 02:46:04;;;;;;;2.72;1.60;;;;;;;4.78;100.00;99145.78;4947102;29;20039;-76
2023/04/01 02:48:29;;;;;;;2.67;1.57;;;;;;;4.73;100.00;99141.97;4944783;29;20032;-78
2023/04/01 02:50:55;;;;;;;2.30;1.52;;;;;;;4.88;100.00;99160.66;4947572;28;20267;-78
2023/04/01 02:53:21;;;;;;;2.30;1.50;;;;;;;4.88;100.00;99155.38;4922101;29;20091;-75
2023/04/01 02:55:49;;;;;;;3.60;2.50;;;;;;;4.64;100.00;99155.19;4935198;29;20473;-76
2023/04/01 02:58:15;;;;;;;3.75;1.58;;;;;;;4.71;100.00;99167.75;4935019;29;20501;-76
2023/04/01 03:00:40;;;;;;;3.08;1.63;;;;;;;4.76;100.00;99157.53;4939180;28;20035;-74
2023/04/01 03:03:07;;;;;;;4.97;2.97;;;;;;;4.69;100.00;99173.22;4935926;28;20035;-75
2023/04/01 03:05:33;;;;;;;5.90;2.63;;;;;;;4.54;100.00;99165.09;4942861;29;20819;-78
2023/04/01 03:07:58;;;;;;;5.80;3.27;;;;;;;4.49;100.00;99190.34;4934348;29;20131;-75
2023/04/01 03:10:24;;;;;;;8.47;2.50;;;;;;;4.56;100.00;99194.81;4934001;29;20055;-78
2023/04/01 03:12:49;;;;;;;4.70;2.83;;;;;;;4.65;100.00;99208.88;4938814;28;20043;-78
2023/04/01 03:15:15;;;;;;;21.60;3.63;;;;;;;4.72;100.00;99209.06;4935170;29;20024;-76
2023/04/01 03:17:41;;;;;;;4.28;2.05;;;;;;;4.69;100.00;99206.75;4939293;29;20067;-77
2023/04/01 03:20:08;;;;;;;5.35;3.22;;;;;;;4.46;100.00;99191.50;4939327;29;20039;-78
2023/04/01 03:22:35;;;;;;;3.70;2.20;;;;;;;4.53;100.00;99208.34;4947420;29;20032;-78
2023/04/01 03:25:01;;;;;;;3.47;1.77;;;;;;;4.55;100.00;99208.22;4928832;29;20031;-75
2023/04/01 03:27:26;;;;;;;;;;;;;;;4.58;100.00;99208.69;4945234;29;20027;-79
2023/04/01 03:29:52;;;;;;;2.40;1.40;;;;;;;4.42;100.00;99211.28;4941279;29;19919;-78
2023/04/01 03:32:18;;;;;;;3.58;1.50;;;;;;;4.42;100.00;99209.50;4941391;28;20054;-77
2023/04/01 03:34:43;;;;;;;2.65;1.95;;;;;;;4.33;100.00;99218.38;4938161;29;20516;-73
2023/04/01 03:37:09;;;;;;;2.23;1.27;;;;;;;4.50;100.00;99221.91;4941281;28;20048;-76
2023/04/01 03:39:35;;;;;;;2.97;1.60;;;;;;;4.43;100.00;99220.88;4936757;29;20116;-79
2023/04/01 03:42:00;;;;;;;4.43;1.42;;;;;;;4.49;100.00;99225.50;4945517;29;20050;-79
2023/04/01 03:44:26;;;;;;;1.93;1.03;;;;;;;4.22;100.00;99227.41;4944294;28;20098;-77
2023/04/01 03:46:52;;;;;;;1.95;1.10;;;;;;;4.23;100.00;99221.13;4946708;29;20298;-79
2023/04/01 03:49:18;;;;;;;4.17;1.77;;;;;;;4.32;100.00;99247.59;4946039;28;20482;-77
2023/04/01 03:51:46;;;;;;;1.90;1.03;;;;;;;4.24;100.00;99235.19;4944240;29;20335;-79
2023/04/01 03:54:12;;;;;;;2.72;1.58;;;;;;;4.26;100.00;99256.16;4944539;28;20027;-73
2023/04/01 03:56:38;;;;;;;4.65;2.03;;;;;;;4.33;100.00;99262.44;4946693;29;20028;-77
2023/04/01 03:59:05;;;;;;;2.63;1.20;;;;;;;4.33;100.00;99254.53;4948492;29;20258;-78
2023/04/01 04:01:31;;;;;;;2.03;1.55;;;;;;;4.11;100.00;99264.66;4943871;28;20036;-75
2023/04/01 04:03:57;;;;;;;2.70;1.52;;;;;;;4.21;100.00;99265.41;4923992;29;20501;-76
2023/04/01 04:06:23;;;;;;;4.13;1.95;;;;;;;4.03;100.00;99254.06;4939405;29;20039;-77
2023/04/01 04:08:49;;;;;;;4.07;1.73;;;;;;;4.11;100.00;99266.47;4934658;29;20119;-78
2023/04/01 04:11:15;;;;;;;6.40;1.80;;;;;;;4.15;100.00;99284.50;4948366;29;20122;-78
2023/04/01 04:13:42;;;;;;;2.65;1.75;;;;;;;3.99;100.00;99276.50;4950713;28;20115;-78
2023/04/01 04:16:09;;;;;;;4.07;1.50;;;;;;;4.05;100.00;99282.94;4920348;29;20036;-79
2023/04/01 04:18:37;;;;;;;3.05;1.63;;;;;;;4.02;100.00;99292.00;4945957;29;20034;-79
2023/04/01 04:21:03;;;;;;;2.63;1.67;;;;;;;4.12;100.00;99298.03;4950162;29;20031;-78
2023/04/01 04:23:30;;;;;;;3.67;2.08;;;;;;;3.97;100.00;99279.28;4950520;28;20282;-79
2023/04/01 04:26:01;;;;;;;3.25;1.90;;;;;;;4.00;100.00;99293.97;4950999;28;20039;-75
2023/04/01 04:28:28;;;;;;;3.58;2.13;;;;;;;4.04;100.00;99305.06;4933964;29;20034;-79
2023/04/01 04:30:55;;;;;;;5.43;3.58;;;;;;;3.97;100.00;99297.75;4947795;29;20494;-77
2023/04/01 04:33:22;;;;;;;3.50;2.00;;;;;;;4.01;100.00;99307.03;4944657;29;20028;-75
2023/04/01 04:35:47;;;;;;;4.90;2.28;;;;;;;3.96;100.00;99313.78;4944883;29;20035;-76
2023/04/01 04:38:13;;;;;;;5.97;2.28;;;;;;;4.03;100.00;99317.47;4947542;29;20071;-78
2023/04/01 04:40:40;;;;;;;5.68;2.53;;;;;;;3.88;100.00;99321.63;4933153;29;20111;-79
2023/04/01 04:43:05;;;;;;;2.70;1.98;;;;;;;3.88;100.00;99321.63;4950948;28;20865;-77
2023/04/01 04:45:31;;;;;;;4.60;2.40;;;;;;;3.80;100.00;99327.69;4949739;29;20046;-75
2023/04/01 04:47:57;;;;;;;7.32;2.55;;;;;;;3.95;100.00;99330.59;4938532;29;20055;-79
2023/04/01 04:50:23;;;;;;;4.23;2.70;;;;;;;3.84;100.00;99325.56;4946170;29;20031;-78
2023/04/01 04:52:49;;;;;;;6.35;2.30;;;;;;;3.75;100.00;99322.03;4921905;29;20276;-78
2023/04/01 04:55:15;;;;;;;7.28;2.33;;;;;;;3.74;100.00;99321.19;4937431;29;20814;-77
2023/04/01 04:57:42;;;;;;;3.90;2.33;;;;;;;3.80;100.00;99335.59;4945732;28;20090;-74
2023/04/01 05:00:09;;;;;;;6.40;1.70;;;;;;;3.81;100.00;99342.53;4936688;29;20437;-75
2023/04/01 05:02:53;;;;;;;4.03;2.15;;;;;;;3.75;100.00;99343.16;4948246;28;20283;-78
2023/04/01 05:05:19;;;;;;;2.75;1.73;;;;;;;3.77;100.00;99341.22;4936944;28;20090;-77
2023/04/01 05:07:44;;;;;;;;;;;;;;;3.73;100.00;99350.41;4948831;29;20043;-78
2023/04/01 05:10:10;;;;;;;7.28;2.25;;;;;;;3.69;100.00;99347.22;4942431;29;19961;-75
2023/04/01 05:12:37;;;;;;;3.22;2.17;;;;;;;3.67;100.00;99349.19;4947998;29;20421;-75
2023/04/01 05:15:05;;;;;;;7.07;2.58;;;;;;;3.71;100.00;99350.53;4945897;29;20027;-78
2023/04/01 05:17:33;;;;;;;4.75;2.45;;;;;;;3.64;100.00;99349.50;4931827;29;20067;-74
2023/04/01 05:19:59;;;;;;;3.03;1.80;;;;;;;3.76;100.00;99350.91;4942107;29;20051;-78
2023/04/01 05:22:26;;;;;;;5.28;1.63;;;;;;;3.67;100.00;99351.81;4945332;29;20137;-77
2023/04/01 05:24:51;;;;;;;5.00;2.25;;;;;;;3.66;100.00;99355.47;4947471;29;20027;-77
2023/04/01 05:27:17;;;;;;;3.58;2.55;;;;;;;3.64;100.00;99359.22;4936769;29;20020;-77
2023/04/01 05:29:43;;;;;;;1.83;1.45;;;;;;;3.64;100.00;99364.50;4936239;29;20041;-76
2023/04/01 05:32:24;;;;;;;4.85;1.17;;;;;;;3.58;100.00;99358.88;4936583;29;20043;-76
2023/04/01 05:34:53;;;;;;;5.13;1.35;;;;;;;3.52;100.00;99358.63;4947760;29;20043;-77
2023/04/01 05:37:19;;;;;;;13.90;1.90;;;;;;;3.70;100.00;99369.16;4920390;29;20051;-76
2023/04/01 05:39:45;;;;;;;0.88;0.73;;;;;;;3.65;100.00;99371.44;4947347;28;20024;-76
2023/04/01 05:42:11;;;;;;;1.90;1.30;;;;;;;3.61;100.00;99383.31;4947167;28;20064;-76
2023/04/01 05:44:38;;;;;;;2.75;1.15;;;;;;;3.61;100.00;99375.38;4942699;28;20063;-75
2023/04/01 05:47:06;;;;;;;2.47;1.25;;;;;;;3.54;100.00;99372.50;4931475;29;20047;-76
2023/04/01 05:49:33;;;;;;;2.35;1.70;;;;;;;3.56;100.00;99376.66;4945829;28;20389;-75
2023/04/01 05:51:59;;;;;;;1.30;1.20;;;;;;;3.72;100.00;99402.38;4945722;28;20175;-76
2023/04/01 05:54:24;;;;;;;2.20;1.33;;;;;;;3.65;100.00;99379.34;4929641;29;20146;-76
2023/04/01 05:56:50;;;;;;;6.13;1.80;;;;;;;3.62;100.00;99385.75;4945744;28;20072;-77
2023/04/01 05:59:16;;;;;;;;;;;;;;;3.73;100.00;99401.38;4945499;29;20035;-75
2023/04/01 06:01:42;;;;;;;2.05;1.38;;;;;;;3.59;100.00;99392.19;4945678;29;19918;-76
2023/04/01 06:04:13;;;;;;;2.60;1.77;;;;;;;3.55;100.00;99395.28;4937118;29;20028;-74
2023/04/01 06:06:39;;;;;;;2.92;1.50;;;;;;;3.51;100.00;99394.75;4942676;29;20283;-75
2023/04/01 06:09:25;;;;;;;3.50;1.90;;;;;;;3.55;100.00;99396.09;4936404;29;20102;-76
2023/04/01 06:12:14;;;;;;;5.93;1.48;;;;;;;3.63;100.00;99405.91;4945076;28;20035;-76
2023/04/01 06:15:18;;;;;;;3.20;1.20;;;;;;;3.51;100.00;99385.97;4914017;29;20036;-75
2023/04/01 06:18:22;;;;;;;2.08;1.15;;;;;;;3.73;100.00;99413.75;4945358;29;20032;-75
2023/04/01 06:20:59;;;;;;;1.58;1.13;;;;;;;3.67;100.00;99411.72;4910108;29;20040;-75
2023/04/01 06:23:59;;;;;;;2.85;1.20;;;;;;;3.63;100.00;99418.25;4945250;28;20071;-76
2023/04/01 06:26:36;;;;;;;2.70;1.50;;;;;;;3.56;100.00;99416.25;4939027;29;20473;-75
2023/04/01 06:29:25;;;;;;;2.65;1.40;;;;;;;3.61;100.00;99423.72;4944554;28;20047;-76
2023/04/01 06:32:13;;;;;;;2.75;1.50;;;;;;;3.52;100.00;99428.06;4944659;28;20035;-76
2023/04/01 06:35:13;;;;;;;3.05;1.73;;;;;;;3.59;100.00;99438.88;4923495;29;20035;-76
2023/04/01 06:37:51;;;;;;;3.33;2.20;;;;;;;3.74;100.00;99457.63;4937032;29;20032;-75
2023/04/01 06:40:25;;;;;;;2.45;1.50;;;;;;;3.63;100.00;99458.72;4928399;29;20046;-75
2023/04/01 06:43:03;;;;;;;2.10;1.70;;;;;;;3.67;100.00;99460.03;4923152;29;20048;-76
2023/04/01 06:46:07;;;;;;;3.50;1.40;;;;;;;3.73;100.00;99461.28;4928114;29;20109;-76
2023/04/01 06:49:33;;;;;;;5.97;1.60;;;;;;;3.77;100.00;99473.19;4866768;29;20604;-77
2023/04/01 06:52:42;;;;;;;2.72;1.70;;;;;;;3.73;100.00;99483.22;4843344;29;20044;-76
2023/04/01 06:55:37;;;;;;;2.38;1.25;;;;;;;3.77;100.00;99476.66;4873116;29;20100;-75
2023/04/01 06:58:37;;;;;;;3.70;1.40;;;;;;;3.67;100.00;99478.53;4883056;29;20053;-76
2023/04/01 07:01:29;;;;;;;6.70;2.30;;;;;;;3.73;100.00;99493.78;4889320;29;20049;-75
2023/04/01 07:04:04;;;;;;;1.60;1.10;;;;;;;3.69;100.00;99487.13;4856412;29;20044;-77
2023/04/01 07:06:42;;;;;;;3.22;1.35;;;;;;;3.73;100.00;99491.13;4881052;29;20045;-78
2023/04/01 07:09:24;;;;;;;4.30;1.30;;;;;;;3.68;100.00;99482.84;4876446;29;20036;-76
2023/04/01 07:12:35;;;;;;;2.47;1.35;;;;;;;3.78;100.00;99510.00;4880311;29;20177;-76
2023/04/01 07:15:30;;;;;;;1.58;1.33;;;;;;;3.74;100.00;99513.91;4887168;29;20077;-76
2023/04/01 07:18:02;;;;;;;2.80;1.60;;;;;;;3.77;100.00;99508.34;4888788;29;20440;-76
2023/04/01 07:20:36;;;;;;;4.10;1.42;;;;;;;3.74;100.00;99502.53;4913919;29;20044;-75
2023/04/01 07:23:06;;;;;;;4.35;1.70;;;;;;;3.65;100.00;99506.03;4942020;28;20070;-77
2023/04/01 07:26:00;;;;;;;4.45;1.00;;;;;;;3.66;100.00;99518.28;4928838;29;20039;-76
2023/04/01 07:28:35;;;;;;;2.50;2.00;;;;;;;3.74;100.00;99521.00;4929398;29;20043;-76
2023/04/01 07:31:33;;;;;;;3.15;1.80;;;;;;;3.69;100.00;99536.44;4923202;29;20031;-75
2023/04/01 07:34:28;;;;;;;3.42;1.63;;;;;;;3.74;100.00;99532.38;4944439;28;20036;-76
2023/04/01 07:37:24;;;;;;;2.72;1.35;;;;;;;3.67;100.00;99526.03;4944829;28;20031;-75
2023/04/01 07:40:15;;;;;;;2.63;1.20;;;;;;;3.76;100.00;99541.00;4945584;29;20051;-76
2023/04/01 07:43:02;;;;;;;2.03;1.10;;;;;;;3.66;100.00;99545.50;4941559;28;20118;-76
2023/04/01 07:45:42;;;;;;;3.92;2.00;;;;;;;3.78;100.00;99543.50;4937443;29;20028;-75
2023/04/01 07:48:18;;;;;;;3.00;1.70;;;;;;;3.74;100.00;99540.31;4942164;29;20075;-76
2023/04/01 07:50:59;;;;;;;;;;;;;;;3.75;100.00;99549.91;4948066;28;20035;-76
2023/04/01 07:53:36;;;;;;;3.75;1.90;;;;;;;3.60;100.00;99548.72;4933726;29;19918;-76
2023/04/01 07:56:18;;;;;;;2.10;1.42;;;;;;;3.71;100.00;99559.09;4948286;29;20095;-76
2023/04/01 07:59:00;;;;;;;6.03;1.10;;;;;;;3.74;100.00;99561.41;4944828;29;20036;-76
2023/04/01 08:02:13;;;;;;;1.65;1.15;;;;;;;3.74;100.00;99565.88;4911486;29;20147;-76
2023/04/01 08:04:56;;;;;;;3.28;1.30;;;;;;;3.68;100.00;99548.84;4908977;29;20060;-77
2023/04/01 08:07:57;;;;;;;2.70;1.98;;;;;;;3.84;100.00;99573.75;4908983;29;20406;-76
2023/04/01 08:11:12;;;;;;;3.67;1.58;;;;;;;3.87;100.00;99589.31;4918274;29;20159;-76
2023/04/01 08:14:27;;;;;;;2.28;1.38;;;;;;;3.68;100.00;99583.16;4890522;29;20055;-76
2023/04/01 08:17:22;;;;;;;3.90;2.40;;;;;;;3.65;100.00;99583.41;4898345;29;20076;-76
2023/04/01 08:20:17;;;;;;;2.58;1.30;;;;;;;3.70;100.00;99594.41;4910683;29;20055;-76
2023/04/01 08:22:50;;;;;;;4.72;1.80;;;;;;;3.70;100.00;99593.53;4910427;29;20067;-75
2023/04/01 08:25:27;;;;;;;2.03;1.15;;;;;;;3.61;100.00;99594.44;4914579;29;20088;-76
2023/04/01 08:27:59;;;;;;;5.93;2.20;;;;;;;3.55;100.00;99609.84;4901864;29;20032;-76
2023/04/01 08:30:33;;;;;;;2.50;1.45;;;;;;;3.62;100.00;99618.03;4914114;29;20781;-78
2023/04/01 08:33:13;;;;;;;7.75;2.50;;;;;;;3.52;100.00;99604.06;4930718;29;20404;-76
2023/04/01 08:35:54;;;;;;;2.97;1.75;;;;;;;3.68;100.00;99617.47;4904452;29;20036;-76
2023/04/01 08:38:25;;;;;;;5.38;1.60;;;;;;;3.48;100.00;99610.59;4920772;29;20051;-78
2023/04/01 08:40:55;;;;;;;4.47;2.38;;;;;;;3.48;100.00;99621.16;4947306;28;20036;-77
2023/04/01 08:43:25;;;;;;;5.63;2.28;;;;;;;3.57;100.00;99628.19;4944859;28;20032;-75
2023/04/01 08:46:13;;;;;;;4.40;2.13;;;;;;;3.61;100.00;99631.41;4947295;29;20067;-78
2023/04/01 08:48:44;;;;;;;8.27;2.35;;;;;;;3.64;100.00;99642.47;4925952;29;20048;-77
2023/04/01 08:51:50;;;;;;;7.45;3.60;;;;;;;3.51;100.00;99629.63;4924309;29;20031;-76
2023/04/01 08:54:45;;;;;;;3.95;2.25;;;;;;;3.36;100.00;99620.50;4925112;29;20486;-77
2023/04/01 08:57:39;;;;;;;5.13;2.40;;;;;;;3.46;100.00;99633.66;4947239;29;20507;-76
2023/04/01 09:00:50;;;;;;;4.57;2.30;;;;;;;3.69;100.00;99650.78;4932698;29;20046;-77
2023/04/01 09:03:52;;;;;;;5.95;2.50;;;;;;;3.74;100.00;99664.38;4941019;28;20060;-77
2023/04/01 09:06:34;;;;;;;3.72;2.20;;;;;;;3.58;100.00;99653.59;4934372;29;20046;-76
2023/04/01 09:09:32;;;;;;;7.80;3.67;;;;;;;3.57;100.00;99652.78;4938417;28;20060;-76
2023/04/01 09:12:44;;;;;;;8.95;3.70;;;;;;;3.53;100.00;99663.75;4943567;29;20488;-76
2023/04/01 09:15:55;;;;;;;9.27;3.85;;;;;;;3.52;100.00;99676.13;4937475;29;20042;-76
2023/04/01 09:18:29;;;;;;;12.00;3.30;;;;;;;3.37;100.00;99673.13;4919578;29;20040;-76
2023/04/01 09:21:27;;;;;;;7.75;4.38;;;;;;;3.48;100.00;99680.03;4944271;29;20153;-77
2023/04/01 09:24:12;;;;;;;13.20;3.47;;;;;;;3.44;100.00;99659.34;4940270;28;20046;-75
2023/04/01 09:26:43;;;;;;;6.00;3.20;;;;;;;3.37;100.00;99696.88;4940386;29;20056;-76
2023/04/01 09:29:11;;;;;;;13.07;4.95;;;;;;;3.50;100.00;99693.91;4921826;29;20079;-76
2023/04/01 09:31:59;;;;;;;14.80;5.65;;;;;;;3.33;100.00;99697.28;4930697;29;20032;-76
2023/04/01 09:34:54;;;;;;;17.58;5.15;;;;;;;3.38;100.00;99711.72;4945676;28;20922;-75
2023/04/01 09:37:33;;;;;;;7.72;4.72;;;;;;;3.45;100.00;99719.09;4929622;29;20565;-80
2023/04/01 09:40:47;;;;;;;14.50;6.00;;;;;;;3.45;100.00;99727.00;4945298;29;20042;-76
2023/04/01 09:43:28;;;;;;;13.63;5.15;;;;;;;3.44;100.00;99722.69;4945275;28;20043;-76
2023/04/01 09:46:11;;;;;;;10.40;5.28;;;;;;;3.44;100.00;99739.38;4945252;29;20027;-79
2023/04/01 09:48:59;;;;;;;13.95;6.78;;;;;;;3.26;100.00;99728.69;4944718;29;20032;-77
2023/04/01 09:51:51;;;;;;;43.90;6.72;;;;;;;3.28;100.00;99734.66;4929843;29;20056;-76
2023/04/01 09:54:50;;;;;;;16.60;5.30;;;;;;;3.35;100.00;99753.41;4913895;29;20503;-75
2023/04/01 09:57:37;;;;;;;12.60;5.22;;;;;;;3.14;100.00;99743.81;4917612;29;20051;-77
2023/04/01 10:00:39;;;;;;;10.75;4.90;;;;;;;3.34;100.00;99755.19;4925606;29;20039;-76
2023/04/01 10:03:25;;;;;;;13.88;6.28;;;;;;;3.31;100.00;99752.84;4944477;28;20059;-75
2023/04/01 10:06:09;;;;;;;11.65;5.28;;;;;;;3.35;100.00;99743.66;4944337;29;20466;-77
2023/04/01 10:09:01;;;;;;;15.13;6.97;;;;;;;3.08;100.00;99725.06;4944167;29;20028;-77
2023/04/01 10:11:58;;;;;;;18.13;6.93;;;;;;;3.31;100.00;99768.66;4925943;29;20028;-76
2023/04/01 10:14:29;;;;;;;15.63;5.47;;;;;;;3.29;100.00;99760.06;4939088;29;20078;-75
2023/04/01 10:17:08;;;;;;;19.05;5.97;;;;;;;3.31;100.00;99767.84;4944474;29;20062;-75
2023/04/01 10:20:05;;;;;;;18.02;7.25;;;;;;;3.20;100.00;99755.59;4929535;29;20049;-77
2023/04/01 10:22:56;;;;;;;13.65;6.18;;;;;;;3.28;100.00;99766.31;4923950;29;20115;-76
2023/04/01 10:25:48;;;;;;;14.65;6.82;;;;;;;3.38;100.00;99761.84;4938834;29;20062;-75
2023/04/01 10:28:50;;;;;;;13.57;6.03;;;;;;;3.15;100.00;99757.84;4928173;29;20060;-77
2023/04/01 10:32:06;;;;;;;17.50;6.68;;;;;;;3.17;100.00;99763.81;4924109;29;20095;-75
2023/04/01 10:34:56;;;;;;;16.15;6.00;;;;;;;3.39;100.00;99783.78;4924313;29;20115;-76
2023/04/01 10:37:40;;;;;;;18.77;6.82;;;;;;;3.44;100.00;99781.59;4922202;29;20036;-77
2023/04/01 10:40:43;;;;;;;16.52;7.15;;;;;;;3.38;100.00;99780.31;4917707;29;20115;-77
2023/04/01 10:43:56;;;;;;;25.27;11.25;;;;;;;3.19;100.00;99753.97;4923678;29;20042;-76
2023/04/01 10:46:47;;;;;;;20.00;8.93;;;;;;;3.43;100.00;99794.91;4912645;29;20534;-76
2023/04/01 10:49:59;;;;;;;14.52;5.40;;;;;;;3.58;100.00;99791.72;4928106;29;20620;-77
2023/04/01 10:52:51;;;;;;;26.40;7.35;;;;;;;3.39;100.00;99775.88;4913260;29;20387;-77
2023/04/01 10:55:43;;;;;;;15.65;6.10;;;;;;;3.29;100.00;99773.25;4920897;29;20126;-76
2023/04/01 10:58:56;;;;;;;12.02;4.85;;;;;;;3.24;100.00;99772.81;4933145;29;20537;-77
2023/04/01 11:02:30;;;;;;;17.02;4.82;;;;;;;3.44;100.00;99789.50;4926028;29;20442;-76
2023/04/01 11:05:35;;;;;;;11.32;5.50;;;;;;;3.35;100.00;99791.16;4927699;29;20051;-77
2023/04/01 11:08:45;;;;;;;10.27;4.40;;;;;;;3.25;100.00;99792.13;4924468;29;20095;-77
2023/04/01 11:11:49;;;;;;;13.90;6.03;;;;;;;3.50;100.00;99801.28;4935333;28;20406;-77
2023/04/01 11:15:02;;;;;;;14.52;6.13;;;;;;;3.40;100.00;99792.56;4904059;29;20568;-77
2023/04/01 11:17:54;;;;;;;18.00;5.63;;;;;;;3.38;100.00;99798.78;4933549;29;20039;-77
2023/04/01 11:20:53;;;;;;;17.20;5.47;;;;;;;3.52;100.00;99802.00;4930611;29;20031;-77
2023/04/01 11:23:37;;;;;;;13.95;5.38;;;;;;;3.46;100.00;99797.25;4936467;28;20032;-76
2023/04/01 11:26:38;;;;;;;13.40;5.28;;;;;;;3.32;100.00;99809.88;4931894;29;20040;-76
2023/04/01 11:29:47;;;;;;;10.18;5.13;;;;;;;3.32;100.00;99811.69;4930907;29;20035;-77
2023/04/01 11:32:27;;;;;;;19.10;5.97;;;;;;;3.38;100.00;99829.63;4934655;29;20058;-77
2023/04/01 11:35:14;;;;;;;13.30;6.63;;;;;;;3.47;100.00;99838.53;4934019;29;20461;-77
2023/04/01 11:37:52;;;;;;;13.27;5.28;;;;;;;3.35;100.00;99837.84;4915484;29;20487;-78
2023/04/01 11:41:30;;;;;;;17.80;6.18;;;;;;;3.42;100.00;99841.56;4922425;29;20108;-77
2023/04/01 11:44:28;;;;;;;14.20;5.22;;;;;;;3.10;100.00;99818.91;4936342;28;20046;-77
2023/04/01 11:47:06;;;;;;;9.55;5.50;;;;;;;3.22;100.00;99837.25;4929095;29;20099;-77
2023/04/01 11:50:00;;;;;;;15.88;6.35;;;;;;;3.16;100.00;99833.34;4925053;29;20128;-77
2023/04/01 11:52:55;;;;;;;15.75;5.20;;;;;;;3.47;100.00;99852.53;4913499;29;20123;-77
2023/04/01 11:55:38;;;;;;;21.27;5.28;;;;;;;3.43;100.00;99847.69;4928303;29;20041;-78
2023/04/01 11:58:17;;;;;;;13.43;6.07;;;;;;;3.53;100.00;99861.69;4929916;29;20164;-77
2023/04/01 12:00:54;;;;;;;18.20;6.85;;;;;;;3.51;100.00;99858.38;4933476;29;20046;-77
2023/04/01 12:03:59;;;;;;;16.75;5.28;;;;;;;3.43;100.00;99850.31;4915059;29;20146;-77
2023/04/01 12:06:42;;;;;;;14.40;4.88;;;;;;;3.44;100.00;99857.25;4915223;29;20102;-78
2023/04/01 12:09:26;;;;;;;12.52;5.82;;;;;;;3.38;100.00;99845.47;4934001;29;20055;-75
2023/04/01 12:12:06;;;;;;;10.70;4.85;;;;;;;3.32;100.00;99848.63;4918483;29;20040;-76
2023/04/01 12:14:44;;;;;;;11.32;5.43;;;;;;;3.36;100.00;99866.69;4934575;29;20063;-76
2023/04/01 12:17:39;;;;;;;12.73;4.90;;;;;;;3.46;100.00;99871.16;4931883;29;20047;-76
2023/04/01 12:20:40;;;;;;;23.88;6.70;;;;;;;3.37;100.00;99862.25;4921198;29;20039;-76
2023/04/01 12:24:00;;;;;;;12.02;5.35;;;;;;;3.53;100.00;99875.72;4931161;28;20039;-76
2023/04/01 12:26:37;;;;;;;12.10;5.32;;;;;;;3.30;100.00;99872.53;4933353;29;20053;-77